createdAt,value
2023-05-10T00:00:25.313Z,7.76
2023-05-10T00:02:52.568Z,7.76
2023-05-10T00:05:19.407Z,7.82
2023-05-10T00:07:46.170Z,7.54
2023-05-10T00:10:12.970Z,7.08
2023-05-10T00:12:41.084Z,7.23
2023-05-10T00:15:10.007Z,7.39
2023-05-10T00:17:37.923Z,7.37
2023-05-10T00:20:05.943Z,6.81
2023-05-10T00:22:34.473Z,6.82
2023-05-10T00:25:01.103Z,7.02
2023-05-10T00:27:27.777Z,7.16
2023-05-10T00:29:54.431Z,6.94
2023-05-10T00:32:21.773Z,7.01
2023-05-10T00:34:50.604Z,7.23
2023-05-10T00:37:17.609Z,7.09
2023-05-10T00:39:44.275Z,7.11
2023-05-10T00:42:11.059Z,7.20
2023-05-10T00:44:37.823Z,6.96
2023-05-10T00:47:05.832Z,6.66
2023-05-10T00:49:33.960Z,6.83
2023-05-10T00:52:00.756Z,6.87
2023-05-10T00:54:27.351Z,6.38
2023-05-10T00:56:54.121Z,6.60
2023-05-10T00:59:21.779Z,6.45
2023-05-10T01:01:49.051Z,6.36
2023-05-10T01:04:17.656Z,6.58
2023-05-10T01:06:45.860Z,6.47
2023-05-10T01:09:12.931Z,6.58
2023-05-10T01:11:41.986Z,6.83
2023-05-10T01:14:09.109Z,6.56
2023-05-10T01:16:41.691Z,6.74
2023-05-10T01:19:23.893Z,6.72
2023-05-10T01:22:27.598Z,6.52
2023-05-10T01:25:09.379Z,6.63
2023-05-10T01:28:00.772Z,6.20
2023-05-10T01:30:39.317Z,6.20
2023-05-10T01:33:27.028Z,6.03
2023-05-10T01:36:09.859Z,6.09
2023-05-10T01:38:58.504Z,6.00
2023-05-10T01:42:04.526Z,5.76
2023-05-10T01:44:37.215Z,5.82
2023-05-10T01:47:16.742Z,5.49
2023-05-10T01:49:50.538Z,5.74
2023-05-10T01:52:20.799Z,5.68
2023-05-10T01:54:57.915Z,5.94
2023-05-10T01:57:28.844Z,5.88
2023-05-10T01:59:56.146Z,5.86
2023-05-10T02:02:25.226Z,5.85
2023-05-10T02:04:52.484Z,5.57
2023-05-10T02:07:20.182Z,5.79
2023-05-10T02:09:49.039Z,5.56
2023-05-10T02:12:17.207Z,5.56
2023-05-10T02:14:46.061Z,5.69
2023-05-10T02:17:13.835Z,5.45
2023-05-10T02:19:42.772Z,5.63
2023-05-10T02:22:11.996Z,5.53
2023-05-10T02:24:41.044Z,5.50
2023-05-10T02:27:10.687Z,5.62
2023-05-10T02:29:38.190Z,5.49
2023-05-10T02:32:05.448Z,5.60
2023-05-10T02:34:33.294Z,5.52
2023-05-10T02:37:03.215Z,5.53
2023-05-10T02:39:32.322Z,5.79
2023-05-10T02:42:01.517Z,5.63
2023-05-10T02:44:32.086Z,5.66
2023-05-10T02:46:59.610Z,5.70
2023-05-10T02:49:27.604Z,5.63
2023-05-10T02:52:01.037Z,5.81
2023-05-10T02:54:32.422Z,5.51
2023-05-10T02:57:01.638Z,5.60
2023-05-10T02:59:28.558Z,5.56
2023-05-10T03:01:55.345Z,5.26
2023-05-10T03:04:22.158Z,5.42
2023-05-10T03:06:49.076Z,4.94
2023-05-10T03:09:17.516Z,4.85
2023-05-10T03:11:50.739Z,4.96
2023-05-10T03:14:18.454Z,4.79
2023-05-10T03:16:57.805Z,4.98
2023-05-10T03:19:51.991Z,4.47
2023-05-10T03:22:26.217Z,4.62
2023-05-10T03:24:56.621Z,4.65
2023-05-10T03:27:26.336Z,4.62
2023-05-10T03:29:56.024Z,4.88
2023-05-10T03:32:23.825Z,4.91
2023-05-10T03:34:50.454Z,5.10
2023-05-10T03:37:17.115Z,5.03
2023-05-10T03:39:43.760Z,4.88
2023-05-10T03:42:12.925Z,5.08
2023-05-10T03:44:42.779Z,5.07
2023-05-10T03:47:09.453Z,4.93
2023-05-10T03:49:36.130Z,5.12
2023-05-10T03:52:02.769Z,4.97
2023-05-10T03:54:29.410Z,5.16
2023-05-10T03:56:56.029Z,5.26
2023-05-10T03:59:23.832Z,5.25
2023-05-10T04:01:50.639Z,5.49
2023-05-10T04:04:19.641Z,5.58
2023-05-10T04:06:46.498Z,5.52
2023-05-10T04:09:13.226Z,5.85
2023-05-10T04:11:41.445Z,6.06
2023-05-10T04:14:08.036Z,6.23
2023-05-10T04:16:35.741Z,6.33
2023-05-10T04:19:03.701Z,6.34
2023-05-10T04:21:30.412Z,6.72
2023-05-10T04:23:58.113Z,6.93
2023-05-10T04:26:26.072Z,7.20
2023-05-10T04:28:52.935Z,7.36
2023-05-10T04:31:19.660Z,7.46
2023-05-10T04:33:46.364Z,7.66
2023-05-10T04:36:12.989Z,7.69
2023-05-10T04:38:40.302Z,7.88
2023-05-10T04:41:10.442Z,7.99
2023-05-10T04:43:39.550Z,8.06
2023-05-10T04:46:07.004Z,8.24
2023-05-10T04:48:34.886Z,8.23
2023-05-10T04:51:02.836Z,8.45
2023-05-10T04:53:29.437Z,8.51
2023-05-10T04:55:57.461Z,8.64
2023-05-10T04:58:24.118Z,8.86
2023-05-10T05:00:50.841Z,8.77
2023-05-10T05:03:17.654Z,8.95
2023-05-10T05:05:45.546Z,8.93
2023-05-10T05:08:12.193Z,8.97
2023-05-10T05:10:38.844Z,9.10
2023-05-10T05:13:05.532Z,9.04
2023-05-10T05:15:32.375Z,9.24
2023-05-10T05:17:59.137Z,9.18
2023-05-10T05:20:25.829Z,9.31
2023-05-10T05:22:52.521Z,9.49
2023-05-10T05:25:19.108Z,9.35
2023-05-10T05:27:45.749Z,9.47
2023-05-10T05:30:12.662Z,9.55
2023-05-10T05:32:39.456Z,9.51
2023-05-10T05:35:06.869Z,9.68
2023-05-10T05:37:33.929Z,9.70
2023-05-10T05:40:02.408Z,9.64
2023-05-10T05:42:30.139Z,9.85
2023-05-10T05:44:56.777Z,9.83
2023-05-10T05:47:24.901Z,9.87
2023-05-10T05:49:51.573Z,10.09
2023-05-10T05:52:20.054Z,10.02
2023-05-10T05:54:46.646Z,10.16
2023-05-10T05:57:13.272Z,10.34
2023-05-10T05:59:45.945Z,10.26
2023-05-10T06:02:12.630Z,10.44
2023-05-10T06:04:41.524Z,10.56
2023-05-10T06:07:09.489Z,10.50
2023-05-10T06:09:36.873Z,10.65
2023-05-10T06:12:03.574Z,10.79
2023-05-10T06:14:30.189Z,10.71
2023-05-10T06:16:56.802Z,10.94
2023-05-10T06:19:23.749Z,11.06
2023-05-10T06:21:53.125Z,10.90
2023-05-10T06:24:20.376Z,11.03
2023-05-10T06:26:48.232Z,11.18
2023-05-10T06:29:16.244Z,11.06
2023-05-10T06:31:44.248Z,11.25
2023-05-10T06:34:12.695Z,11.41
2023-05-10T06:36:39.819Z,11.30
2023-05-10T06:39:06.872Z,11.40
2023-05-10T06:41:33.560Z,11.60
2023-05-10T06:44:00.180Z,11.47
2023-05-10T06:46:28.307Z,11.54
2023-05-10T06:48:56.230Z,11.73
2023-05-10T06:51:22.868Z,11.69
2023-05-10T06:53:49.494Z,11.69
2023-05-10T06:56:16.125Z,11.88
2023-05-10T06:58:42.767Z,11.92
2023-05-10T07:01:09.757Z,11.94
2023-05-10T07:03:36.681Z,12.18
2023-05-10T07:06:04.791Z,12.26
2023-05-10T07:08:32.901Z,12.23
2023-05-10T07:11:08.055Z,12.45
2023-05-10T07:13:35.557Z,12.57
2023-05-10T07:16:03.063Z,12.43
2023-05-10T07:18:29.806Z,12.64
2023-05-10T07:20:57.860Z,12.84
2023-05-10T07:23:24.628Z,12.79
2023-05-10T07:25:54.692Z,12.80
2023-05-10T07:28:22.682Z,12.96
2023-05-10T07:30:49.364Z,13.00
2023-05-10T07:33:17.940Z,13.00
2023-05-10T07:35:45.894Z,13.15
2023-05-10T07:38:13.618Z,13.34
2023-05-10T07:40:40.835Z,13.31
2023-05-10T07:43:07.536Z,13.42
2023-05-10T07:45:35.062Z,13.61
2023-05-10T07:48:03.057Z,13.71
2023-05-10T07:50:29.866Z,13.72
2023-05-10T07:52:56.528Z,13.78
2023-05-10T07:55:23.341Z,13.78
2023-05-10T07:57:50.068Z,13.83
2023-05-10T08:00:21.699Z,14.08
2023-05-10T08:02:48.924Z,14.23
2023-05-10T08:05:17.210Z,14.28
2023-05-10T08:07:44.076Z,14.38
2023-05-10T08:10:12.324Z,14.49
2023-05-10T08:12:39.760Z,14.58
2023-05-10T08:15:07.673Z,14.52
2023-05-10T08:17:35.990Z,14.70
2023-05-10T08:20:02.800Z,14.86
2023-05-10T08:22:30.704Z,15.01
2023-05-10T08:24:57.453Z,15.15
2023-05-10T08:27:24.101Z,15.27
2023-05-10T08:29:50.860Z,15.33
2023-05-10T08:32:18.164Z,15.42
2023-05-10T08:34:45.965Z,15.47
2023-05-10T08:37:14.604Z,15.43
2023-05-10T08:39:41.642Z,15.35
2023-05-10T08:42:10.310Z,15.44
2023-05-10T08:44:37.939Z,15.52
2023-05-10T08:47:08.572Z,15.64
2023-05-10T08:49:35.794Z,15.78
2023-05-10T08:52:08.055Z,15.89
2023-05-10T08:54:35.249Z,15.99
2023-05-10T08:57:03.436Z,16.04
2023-05-10T08:59:30.139Z,16.09
2023-05-10T09:02:00.811Z,16.12
2023-05-10T09:04:28.485Z,16.18
2023-05-10T09:06:55.723Z,16.22
2023-05-10T09:09:23.151Z,16.29
2023-05-10T09:11:50.033Z,16.32
2023-05-10T09:14:18.628Z,16.37
2023-05-10T09:16:46.918Z,16.43
2023-05-10T09:19:13.661Z,16.47
2023-05-10T09:21:41.918Z,16.45
2023-05-10T09:24:11.771Z,16.59
2023-05-10T09:26:48.534Z,16.63
2023-05-10T09:29:17.868Z,16.69
2023-05-10T09:31:44.896Z,16.71
2023-05-10T09:34:11.532Z,16.83
2023-05-10T09:36:59.416Z,16.92
2023-05-10T09:39:37.287Z,16.88
2023-05-10T09:42:08.503Z,16.96
2023-05-10T09:44:35.562Z,17.05
2023-05-10T09:47:03.629Z,17.10
2023-05-10T09:49:30.359Z,17.14
2023-05-10T09:52:10.225Z,17.21
2023-05-10T09:54:37.281Z,17.31
2023-05-10T09:57:04.444Z,17.35
2023-05-10T09:59:31.450Z,17.33
2023-05-10T10:02:01.888Z,17.36
2023-05-10T10:04:29.079Z,17.35
2023-05-10T10:07:05.916Z,17.33
2023-05-10T10:09:33.700Z,17.37
2023-05-10T10:12:01.515Z,17.47
2023-05-10T10:14:29.371Z,17.55
2023-05-10T10:17:07.227Z,17.40
2023-05-10T10:19:38.059Z,17.22
2023-05-10T10:22:06.574Z,17.30
2023-05-10T10:24:34.939Z,17.28
2023-05-10T10:27:26.301Z,17.34
2023-05-10T10:30:14.815Z,17.44
2023-05-10T10:33:20.640Z,17.56
2023-05-10T10:35:57.566Z,17.62
2023-05-10T10:38:25.590Z,17.64
2023-05-10T10:41:11.846Z,17.76
2023-05-10T10:43:38.570Z,17.78
2023-05-10T10:46:15.890Z,17.73
2023-05-10T10:48:49.366Z,17.84
2023-05-10T10:51:16.261Z,17.88
2023-05-10T10:53:44.288Z,17.85
2023-05-10T10:56:13.922Z,17.85
2023-05-10T10:58:41.332Z,17.87
2023-05-10T11:01:16.589Z,17.94
2023-05-10T11:04:05.964Z,18.06
2023-05-10T11:06:38.152Z,18.12
2023-05-10T11:09:09.419Z,18.27
2023-05-10T11:11:37.557Z,18.17
2023-05-10T11:14:08.303Z,18.12
2023-05-10T11:16:45.222Z,18.23
2023-05-10T11:19:15.714Z,18.32
2023-05-10T11:21:50.855Z,18.26
2023-05-10T11:24:23.582Z,18.22
2023-05-10T11:26:56.492Z,18.25
2023-05-10T11:29:23.415Z,18.30
2023-05-10T11:31:50.791Z,18.32
2023-05-10T11:34:32.261Z,18.31
2023-05-10T11:36:59.458Z,18.39
2023-05-10T11:39:30.878Z,18.42
2023-05-10T11:41:58.682Z,18.43
2023-05-10T11:44:31.351Z,18.38
2023-05-10T11:47:00.963Z,18.30
2023-05-10T11:49:27.637Z,18.25
2023-05-10T11:51:55.407Z,18.38
2023-05-10T11:54:22.033Z,18.46
2023-05-10T11:56:48.699Z,18.61
2023-05-10T11:59:16.153Z,18.62
2023-05-10T12:01:43.027Z,18.53
2023-05-10T12:04:11.239Z,18.44
2023-05-10T12:06:42.759Z,18.26
2023-05-10T12:09:09.862Z,18.30
2023-05-10T12:11:43.886Z,18.32
2023-05-10T12:14:11.535Z,18.43
2023-05-10T12:16:38.195Z,18.43
2023-05-10T12:19:06.070Z,18.49
2023-05-10T12:21:35.087Z,18.41
2023-05-10T12:24:06.300Z,18.52
2023-05-10T12:26:33.689Z,18.59
2023-05-10T12:29:15.785Z,18.73
2023-05-10T12:31:56.934Z,18.82
2023-05-10T12:34:35.197Z,18.92
2023-05-10T12:37:05.045Z,18.88
2023-05-10T12:39:42.306Z,18.88
2023-05-10T12:42:09.498Z,18.94
2023-05-10T12:44:36.156Z,18.95
2023-05-10T12:47:02.812Z,18.97
2023-05-10T12:49:29.511Z,19.05
2023-05-10T12:51:56.101Z,19.00
2023-05-10T12:54:22.781Z,19.13
2023-05-10T12:56:49.394Z,19.16
2023-05-10T12:59:15.981Z,19.27
2023-05-10T13:01:42.686Z,19.22
2023-05-10T13:04:09.461Z,19.30
2023-05-10T13:06:36.167Z,19.33
2023-05-10T13:09:03.469Z,19.46
2023-05-10T13:11:31.376Z,19.63
2023-05-10T13:13:59.384Z,19.60
2023-05-10T13:16:26.088Z,19.63
2023-05-10T13:18:54.025Z,19.67
2023-05-10T13:21:20.790Z,19.82
2023-05-10T13:23:48.950Z,19.98
2023-05-10T13:26:15.871Z,19.94
2023-05-10T13:28:43.741Z,19.86
2023-05-10T13:31:10.398Z,19.72
2023-05-10T13:33:38.330Z,19.64
2023-05-10T13:36:06.834Z,19.85
2023-05-10T13:38:34.037Z,20.02
2023-05-10T13:41:02.421Z,20.10
2023-05-10T13:43:30.441Z,20.00
2023-05-10T13:45:57.239Z,19.97
2023-05-10T13:48:23.955Z,20.22
2023-05-10T13:50:50.741Z,20.24
2023-05-10T13:53:18.482Z,20.45
2023-05-10T13:55:45.131Z,20.57
2023-05-10T13:58:11.853Z,20.66
2023-05-10T14:00:38.454Z,20.75
2023-05-10T14:03:06.345Z,20.80
2023-05-10T14:05:33.048Z,20.80
2023-05-10T14:07:59.754Z,20.66
2023-05-10T14:10:26.505Z,20.79
2023-05-10T14:12:53.097Z,20.83
2023-05-10T14:15:19.959Z,20.73
2023-05-10T14:17:46.699Z,20.65
2023-05-10T14:20:13.298Z,20.72
2023-05-10T14:22:39.965Z,20.79
2023-05-10T14:25:06.833Z,20.90
2023-05-10T14:27:33.624Z,21.08
2023-05-10T14:30:01.420Z,21.19
2023-05-10T14:32:28.908Z,21.33
2023-05-10T14:34:56.500Z,21.38
2023-05-10T14:37:23.982Z,21.54
2023-05-10T14:39:51.187Z,21.42
2023-05-10T14:42:17.795Z,21.32
2023-05-10T14:44:44.407Z,21.34
2023-05-10T14:47:12.115Z,21.39
2023-05-10T14:49:39.019Z,21.28
2023-05-10T14:52:05.699Z,21.30
2023-05-10T14:54:34.402Z,21.31
2023-05-10T14:57:01.696Z,21.26
2023-05-10T14:59:28.320Z,21.24
2023-05-10T15:01:55.480Z,21.23
2023-05-10T15:04:22.505Z,21.28
2023-05-10T15:06:49.506Z,21.22
2023-05-10T15:09:18.572Z,21.27
2023-05-10T15:11:45.539Z,21.22
2023-05-10T15:14:12.145Z,21.22
2023-05-10T15:16:38.860Z,21.16
2023-05-10T15:19:05.608Z,21.01
2023-05-10T15:21:36.186Z,20.95
2023-05-10T15:24:04.083Z,20.98
2023-05-10T15:26:30.700Z,21.02
2023-05-10T15:28:58.909Z,21.06
2023-05-10T15:31:25.641Z,21.13
2023-05-10T15:33:53.658Z,21.20
2023-05-10T15:36:21.903Z,21.14
2023-05-10T15:38:49.006Z,21.12
2023-05-10T15:41:17.222Z,21.09
2023-05-10T15:43:43.885Z,20.88
2023-05-10T15:46:10.518Z,20.77
2023-05-10T15:48:37.791Z,20.68
2023-05-10T15:51:04.423Z,20.57
2023-05-10T15:53:31.029Z,20.58
2023-05-10T15:55:57.923Z,20.66
2023-05-10T15:58:24.602Z,20.69
2023-05-10T16:00:51.292Z,20.69
2023-05-10T16:03:17.967Z,20.67
2023-05-10T16:05:45.789Z,20.57
2023-05-10T16:08:12.373Z,20.49
2023-05-10T16:10:38.992Z,20.36
2023-05-10T16:13:05.727Z,20.41
2023-05-10T16:15:32.349Z,20.28
2023-05-10T16:17:59.196Z,20.20
2023-05-10T16:20:28.048Z,20.14
2023-05-10T16:22:54.700Z,20.22
2023-05-10T16:25:22.659Z,20.21
2023-05-10T16:27:49.324Z,20.15
2023-05-10T16:30:16.116Z,20.16
2023-05-10T16:35:11.007Z,20.18
2023-05-10T16:37:38.066Z,20.10
2023-05-10T16:40:07.949Z,19.94
2023-05-10T16:42:35.007Z,19.94
2023-05-10T16:45:07.888Z,19.96
2023-05-10T16:47:35.663Z,19.99
2023-05-10T16:50:03.188Z,19.86
2023-05-10T16:52:29.897Z,19.77
2023-05-10T16:54:56.998Z,19.79
2023-05-10T16:57:23.695Z,19.66
2023-05-10T16:59:54.492Z,19.61
2023-05-10T17:02:21.683Z,19.67
2023-05-10T17:04:48.598Z,19.64
2023-05-10T17:07:16.154Z,19.65
2023-05-10T17:09:44.084Z,19.58
2023-05-10T17:12:12.363Z,19.49
2023-05-10T17:14:39.048Z,19.40
2023-05-10T17:17:06.956Z,19.39
2023-05-10T17:19:33.857Z,19.37
2023-05-10T17:22:00.593Z,19.39
2023-05-10T17:24:29.690Z,19.36
2023-05-10T17:26:58.662Z,19.27
2023-05-10T17:29:25.259Z,19.07
2023-05-10T17:31:53.336Z,18.77
2023-05-10T17:34:20.002Z,18.58
2023-05-10T17:36:47.106Z,18.35
2023-05-10T17:39:14.145Z,18.19
2023-05-10T17:41:41.211Z,18.03
2023-05-10T17:44:07.829Z,17.93
2023-05-10T17:46:35.186Z,17.81
2023-05-10T17:49:03.794Z,17.68
2023-05-10T17:51:31.822Z,17.57
2023-05-10T17:53:58.954Z,17.45
2023-05-10T17:56:25.583Z,17.35
2023-05-10T17:58:53.320Z,17.25
2023-05-10T18:01:20.158Z,17.18
2023-05-10T18:03:49.431Z,17.08
2023-05-10T18:06:16.115Z,16.98
2023-05-10T18:08:42.745Z,16.87
2023-05-10T18:11:09.664Z,16.86
2023-05-10T18:13:36.580Z,16.87
2023-05-10T18:16:05.753Z,16.90
2023-05-10T18:18:32.352Z,16.93
2023-05-10T18:20:59.229Z,16.96
2023-05-10T18:23:26.425Z,16.90
2023-05-10T18:25:54.456Z,16.85
2023-05-10T18:28:21.093Z,16.83
2023-05-10T18:30:47.749Z,16.74
2023-05-10T18:33:14.776Z,16.67
2023-05-10T18:35:41.785Z,16.61
2023-05-10T18:38:09.839Z,16.37
2023-05-10T18:40:37.302Z,16.14
2023-05-10T18:43:05.661Z,15.97
2023-05-10T18:45:32.274Z,15.83
2023-05-10T18:47:58.972Z,15.73
2023-05-10T18:50:25.680Z,15.67
2023-05-10T18:52:52.537Z,15.53
2023-05-10T18:55:19.444Z,15.37
2023-05-10T18:57:46.684Z,15.26
2023-05-10T19:00:13.642Z,15.11
2023-05-10T19:02:40.674Z,14.94
2023-05-10T19:05:08.138Z,14.81
2023-05-10T19:07:34.790Z,14.66
2023-05-10T19:10:02.622Z,14.54
2023-05-10T19:12:29.204Z,14.51
2023-05-10T19:14:57.187Z,14.40
2023-05-10T19:17:23.892Z,14.26
2023-05-10T19:19:50.749Z,14.11
2023-05-10T19:22:21.381Z,14.05
2023-05-10T19:24:53.549Z,13.93
2023-05-10T19:27:20.222Z,13.78
2023-05-10T19:29:48.301Z,13.68
2023-05-10T19:32:14.898Z,13.47
2023-05-10T19:34:41.506Z,13.42
2023-05-10T19:37:08.177Z,13.29
2023-05-10T19:39:35.564Z,13.24
2023-05-10T19:42:03.426Z,13.13
2023-05-10T19:44:31.457Z,13.00
2023-05-10T19:46:59.003Z,12.85
2023-05-10T19:49:26.844Z,12.77
2023-05-10T19:51:53.519Z,12.69
2023-05-10T19:54:21.034Z,12.60
2023-05-10T19:56:47.767Z,12.46
2023-05-10T19:59:14.502Z,12.33
2023-05-10T20:01:41.162Z,12.21
2023-05-10T20:04:09.329Z,12.08
2023-05-10T20:06:37.323Z,12.05
2023-05-10T20:09:06.172Z,11.99
2023-05-10T20:11:32.828Z,11.89
2023-05-10T20:14:00.861Z,11.73
2023-05-10T20:16:27.564Z,11.68
2023-05-10T20:18:54.599Z,11.63
2023-05-10T20:21:22.416Z,11.53
2023-05-10T20:23:49.033Z,11.45
2023-05-10T20:26:17.081Z,11.38
2023-05-10T20:28:43.674Z,11.29
2023-05-10T20:31:11.522Z,11.30
2023-05-10T20:33:38.149Z,11.21
2023-05-10T20:36:04.972Z,11.13
2023-05-10T20:38:32.248Z,11.12
2023-05-10T20:40:58.913Z,10.99
2023-05-10T20:43:26.892Z,10.96
2023-05-10T20:45:54.120Z,10.89
2023-05-10T20:48:21.142Z,10.78
2023-05-10T20:50:47.811Z,10.71
2023-05-10T20:53:14.830Z,10.68
2023-05-10T20:55:42.625Z,10.55
2023-05-10T20:58:09.347Z,10.51
2023-05-10T21:00:37.201Z,10.47
2023-05-10T21:03:04.096Z,10.40
2023-05-10T21:05:30.945Z,10.14
2023-05-10T21:07:57.639Z,10.11
2023-05-10T21:10:28.269Z,10.02
2023-05-10T21:12:55.844Z,10.05
2023-05-10T21:15:25.233Z,10.03
2023-05-10T21:17:53.876Z,9.95
2023-05-10T21:20:20.622Z,9.97
2023-05-10T21:22:47.370Z,9.92
2023-05-10T21:25:14.066Z,9.92
2023-05-10T21:27:40.867Z,9.89
2023-05-10T21:30:09.561Z,9.92
2023-05-10T21:32:38.029Z,9.85
2023-05-10T21:35:05.440Z,9.78
2023-05-10T21:37:32.071Z,9.70
2023-05-10T21:39:58.660Z,9.62
2023-05-10T21:42:25.347Z,9.61
2023-05-10T21:44:51.958Z,9.58
2023-05-10T21:47:18.657Z,9.52
2023-05-10T21:49:45.268Z,9.34
2023-05-10T21:52:12.017Z,9.32
2023-05-10T21:54:39.017Z,9.28
2023-05-10T21:57:05.645Z,9.27
2023-05-10T21:59:34.308Z,9.23
2023-05-10T22:02:00.921Z,9.21
2023-05-10T22:04:27.610Z,9.15
2023-05-10T22:06:54.206Z,9.07
2023-05-10T22:09:20.834Z,9.04
2023-05-10T22:11:49.917Z,9.02
2023-05-10T22:14:16.664Z,8.93
2023-05-10T22:16:43.312Z,8.88
2023-05-10T22:19:10.080Z,8.89
2023-05-10T22:21:36.824Z,8.87
2023-05-10T22:24:03.545Z,8.80
2023-05-10T22:26:31.324Z,8.62
2023-05-10T22:28:58.100Z,8.34
2023-05-10T22:31:24.718Z,8.10
2023-05-10T22:33:52.509Z,7.96
2023-05-10T22:36:19.094Z,7.91
2023-05-10T22:38:47.444Z,7.92
2023-05-10T22:41:14.066Z,7.78
2023-05-10T22:43:41.882Z,7.75
2023-05-10T22:46:08.528Z,7.59
2023-05-10T22:48:35.838Z,7.44
2023-05-10T22:51:02.509Z,7.46
2023-05-10T22:53:29.141Z,7.39
2023-05-10T22:55:57.356Z,7.45
2023-05-10T22:58:24.067Z,7.43
2023-05-10T23:00:50.731Z,7.28
2023-05-10T23:03:17.953Z,7.21
2023-05-10T23:05:44.668Z,7.05
2023-05-10T23:08:11.464Z,7.01
2023-05-10T23:10:38.470Z,6.98
2023-05-10T23:13:05.289Z,6.89
2023-05-10T23:15:33.198Z,6.76
2023-05-10T23:18:02.987Z,6.70
2023-05-10T23:20:29.738Z,6.63
2023-05-10T23:22:57.726Z,6.54
2023-05-10T23:25:24.414Z,6.47
2023-05-10T23:27:52.422Z,6.36
2023-05-10T23:30:19.299Z,6.31
2023-05-10T23:32:47.362Z,6.26
2023-05-10T23:35:13.975Z,6.24
2023-05-10T23:37:43.413Z,6.24
2023-05-10T23:40:10.832Z,6.19
2023-05-10T23:42:37.474Z,6.06
2023-05-10T23:45:04.695Z,6.01
2023-05-10T23:47:31.525Z,5.95
2023-05-10T23:49:59.775Z,5.91
2023-05-10T23:52:26.642Z,5.85
2023-05-10T23:54:54.980Z,5.79
2023-05-10T23:57:21.948Z,5.74
2023-05-10T23:59:48.581Z,5.68
